createdAt,value
2019-04-10T00:01:21.229Z,92.76
2019-04-10T00:03:51.706Z,92.96
2019-04-10T00:06:21.981Z,92.81
2019-04-10T00:08:52.787Z,92.95
2019-04-10T00:11:23.340Z,92.90
2019-04-10T00:13:53.642Z,93.09
2019-04-10T00:16:24.506Z,93.12
2019-04-10T00:18:56.031Z,93.20
2019-04-10T00:21:26.712Z,93.29
2019-04-10T00:23:57.708Z,93.48
2019-04-10T00:26:29.929Z,93.50
2019-04-10T00:29:00.544Z,93.67
2019-04-10T00:31:31.780Z,93.94
2019-04-10T00:34:02.164Z,93.97
2019-04-10T00:36:33.184Z,94.20
2019-04-10T00:39:06.459Z,94.45
2019-04-10T00:41:37.011Z,94.65
2019-04-10T00:44:07.790Z,94.96
2019-04-10T00:46:40.102Z,95.18
2019-04-10T00:49:10.339Z,95.58
2019-04-10T00:51:41.947Z,95.90
2019-04-10T00:54:12.152Z,96.03
2019-04-10T00:56:43.347Z,96.16
2019-04-10T00:59:13.565Z,96.40
2019-04-10T01:01:43.857Z,96.32
2019-04-10T01:04:14.155Z,96.48
2019-04-10T01:06:44.386Z,96.57
2019-04-10T01:09:15.387Z,96.90
2019-04-10T01:11:45.784Z,96.97
2019-04-10T01:14:15.918Z,97.28
2019-04-10T01:16:47.278Z,97.33
2019-04-10T01:19:17.626Z,97.40
2019-04-10T01:21:48.119Z,97.36
2019-04-10T01:24:19.558Z,97.42
2019-04-10T01:26:50.051Z,97.51
2019-04-10T01:29:21.730Z,97.58
2019-04-10T01:31:53.115Z,97.83
2019-04-10T01:34:23.325Z,97.95
2019-04-10T01:36:54.580Z,98.02
2019-04-10T01:39:28.648Z,98.01
2019-04-10T01:41:58.791Z,98.11
2019-04-10T01:44:30.920Z,98.15
2019-04-10T01:47:01.253Z,98.10
2019-04-10T01:49:31.573Z,98.06
2019-04-10T01:52:01.789Z,98.25
2019-04-10T01:54:31.972Z,98.32
2019-04-10T01:57:04.095Z,98.28
2019-04-10T01:59:36.166Z,98.23
2019-04-10T02:02:29.464Z,98.33
2019-04-10T02:05:00.673Z,98.41
2019-04-10T02:07:31.918Z,98.39
2019-04-10T02:10:03.678Z,98.25
2019-04-10T02:12:35.250Z,96.44
2019-04-10T02:15:11.239Z,94.87
2019-04-10T02:17:39.423Z,94.73
2019-04-10T02:20:10.490Z,94.45
2019-04-10T02:22:40.787Z,94.47
2019-04-10T02:25:12.080Z,94.02
2019-04-10T02:27:42.691Z,94.28
2019-04-10T02:30:16.395Z,94.54
2019-04-10T02:32:48.239Z,94.38
2019-04-10T02:35:20.272Z,94.67
2019-04-10T02:37:54.963Z,94.72
2019-04-10T02:40:23.681Z,95.16
2019-04-10T02:42:54.759Z,95.30
2019-04-10T02:45:25.965Z,95.60
2019-04-10T02:47:56.605Z,95.80
2019-04-10T02:50:27.349Z,96.10
2019-04-10T02:52:59.249Z,96.27
2019-04-10T02:55:31.384Z,96.49
2019-04-10T02:58:02.596Z,96.15
2019-04-10T03:00:35.891Z,96.26
2019-04-10T03:03:06.528Z,96.15
2019-04-10T03:05:38.286Z,95.86
2019-04-10T03:08:09.352Z,96.43
2019-04-10T03:10:48.614Z,96.33
2019-04-10T03:13:13.741Z,96.60
2019-04-10T03:15:45.453Z,97.17
2019-04-10T03:18:16.756Z,97.08
2019-04-10T03:20:47.404Z,97.03
2019-04-10T03:23:17.712Z,96.76
2019-04-10T03:25:48.834Z,96.95
2019-04-10T03:28:19.241Z,97.13
2019-04-10T03:30:49.627Z,97.03
2019-04-10T03:33:33.727Z,96.94
2019-04-10T03:36:05.277Z,96.96
2019-04-10T03:38:49.666Z,97.00
2019-04-10T03:41:08.137Z,97.07
2019-04-10T03:43:38.348Z,96.96
2019-04-10T03:46:08.930Z,96.97
2019-04-10T03:48:39.270Z,95.80
2019-04-10T03:51:09.647Z,94.54
2019-04-10T03:53:40.354Z,94.62
2019-04-10T03:56:11.718Z,94.59
2019-04-10T03:58:42.073Z,94.89
2019-04-10T04:01:12.314Z,95.27
2019-04-10T04:03:42.700Z,95.21
2019-04-10T04:06:12.936Z,95.17
2019-04-10T04:08:43.691Z,95.04
2019-04-10T04:11:13.824Z,94.54
2019-04-10T04:13:44.084Z,93.74
2019-04-10T04:16:15.027Z,93.67
2019-04-10T04:18:45.711Z,93.81
2019-04-10T04:21:16.055Z,93.96
2019-04-10T04:23:46.848Z,93.71
2019-04-10T04:26:17.195Z,93.65
2019-04-10T04:28:47.370Z,93.99
2019-04-10T04:31:18.116Z,94.11
2019-04-10T04:33:48.965Z,94.06
2019-04-10T04:36:20.486Z,93.90
2019-04-10T04:38:51.414Z,94.43
2019-04-10T04:41:23.173Z,94.29
2019-04-10T04:43:53.446Z,94.34
2019-04-10T04:46:23.994Z,94.62
2019-04-10T04:48:57.739Z,94.76
2019-04-10T04:51:27.950Z,94.90
2019-04-10T04:53:58.998Z,94.68
2019-04-10T04:56:29.486Z,94.85
2019-04-10T04:58:59.967Z,94.66
2019-04-10T05:01:31.721Z,94.42
2019-04-10T05:04:02.432Z,94.04
2019-04-10T05:06:35.057Z,94.38
2019-04-10T05:09:07.669Z,94.33
2019-04-10T05:11:38.547Z,94.41
2019-04-10T05:14:08.785Z,94.48
2019-04-10T05:16:39.541Z,94.74
2019-04-10T05:19:10.225Z,94.30
2019-04-10T05:21:41.501Z,93.95
2019-04-10T05:24:13.714Z,94.47
2019-04-10T05:26:44.840Z,94.26
2019-04-10T05:29:15.500Z,94.36
2019-04-10T05:31:46.610Z,94.62
2019-04-10T05:34:17.791Z,94.96
2019-04-10T05:36:49.142Z,94.90
2019-04-10T05:39:20.565Z,94.85
2019-04-10T05:41:51.077Z,95.01
2019-04-10T05:44:21.489Z,95.02
2019-04-10T05:46:52.683Z,94.70
2019-04-10T05:49:24.673Z,94.15
2019-04-10T05:51:55.621Z,94.08
2019-04-10T05:54:27.080Z,93.59
2019-04-10T05:56:57.397Z,93.74
2019-04-10T05:59:28.074Z,93.55
2019-04-10T06:01:59.161Z,92.76
2019-04-10T06:04:29.555Z,92.39
2019-04-10T06:06:59.675Z,92.93
2019-04-10T06:09:31.158Z,92.26
2019-04-10T06:12:02.318Z,92.52
2019-04-10T06:14:34.505Z,91.87
2019-04-10T06:17:05.996Z,92.30
2019-04-10T06:19:36.490Z,92.99
2019-04-10T06:22:09.645Z,93.09
2019-04-10T06:24:40.430Z,92.74
2019-04-10T06:27:12.361Z,92.27
2019-04-10T06:29:43.471Z,92.36
2019-04-10T06:32:16.965Z,92.74
2019-04-10T06:34:48.114Z,93.03
2019-04-10T06:37:19.035Z,92.67
2019-04-10T06:39:49.424Z,92.62
2019-04-10T06:42:22.752Z,92.88
2019-04-10T06:44:52.933Z,92.95
2019-04-10T06:47:23.068Z,92.70
2019-04-10T06:49:55.352Z,93.06
2019-04-10T06:52:27.016Z,93.08
2019-04-10T06:54:57.435Z,93.06
2019-04-10T06:57:27.771Z,91.83
2019-04-10T06:59:59.756Z,91.69
2019-04-10T07:02:31.579Z,91.96
2019-04-10T07:05:06.250Z,91.46
2019-04-10T07:07:46.546Z,91.23
2019-04-10T07:10:21.415Z,91.29
2019-04-10T07:12:39.924Z,91.35
2019-04-10T07:15:10.682Z,91.49
2019-04-10T07:17:43.191Z,91.43
2019-04-10T07:20:17.624Z,91.54
2019-04-10T07:22:47.160Z,91.56
2019-04-10T07:25:19.619Z,90.96
2019-04-10T07:27:50.295Z,91.05
2019-04-10T07:30:24.156Z,90.88
2019-04-10T07:32:53.073Z,90.74
2019-04-10T07:35:23.802Z,90.15
2019-04-10T07:37:56.686Z,89.49
2019-04-10T07:40:26.126Z,89.60
2019-04-10T07:42:56.719Z,89.57
2019-04-10T07:45:27.349Z,89.55
2019-04-10T07:47:57.878Z,88.80
2019-04-10T07:50:28.693Z,88.75
2019-04-10T07:52:59.839Z,89.50
2019-04-10T07:55:30.938Z,90.02
2019-04-10T07:58:02.690Z,89.23
2019-04-10T08:00:33.075Z,88.70
2019-04-10T08:03:04.171Z,88.84
2019-04-10T08:05:35.432Z,87.74
2019-04-10T08:08:06.004Z,87.25
2019-04-10T08:10:37.360Z,86.67
2019-04-10T08:13:08.594Z,86.44
2019-04-10T08:15:39.104Z,85.34
2019-04-10T08:18:10.062Z,84.89
2019-04-10T08:20:40.391Z,84.92
2019-04-10T08:23:12.204Z,83.98
2019-04-10T08:25:43.121Z,83.98
2019-04-10T08:28:13.625Z,82.61
2019-04-10T08:30:44.062Z,81.83
2019-04-10T08:33:14.421Z,81.21
2019-04-10T08:35:45.453Z,81.67
2019-04-10T08:38:17.234Z,81.60
2019-04-10T08:40:48.223Z,82.20
2019-04-10T08:43:18.752Z,80.02
2019-04-10T08:45:52.073Z,81.54
2019-04-10T08:48:21.955Z,81.37
2019-04-10T08:50:52.610Z,80.44
2019-04-10T08:53:22.839Z,79.91
2019-04-10T08:55:53.028Z,80.78
2019-04-10T08:58:24.957Z,80.49
2019-04-10T09:00:56.597Z,78.90
2019-04-10T09:03:27.142Z,79.00
2019-04-10T09:05:57.354Z,79.67
2019-04-10T09:08:28.765Z,79.99
2019-04-10T09:10:59.535Z,80.62
2019-04-10T09:13:30.669Z,80.65
2019-04-10T09:16:00.955Z,80.18
2019-04-10T09:18:31.558Z,78.95
2019-04-10T09:21:02.776Z,78.37
2019-04-10T09:23:42.548Z,78.37
2019-04-10T09:26:05.860Z,79.44
2019-04-10T09:28:36.091Z,78.37
2019-04-10T09:31:07.356Z,78.46
2019-04-10T09:33:37.658Z,77.27
2019-04-10T09:36:09.041Z,77.70
2019-04-10T09:38:43.927Z,77.42
2019-04-10T09:41:14.036Z,77.64
2019-04-10T09:43:45.610Z,79.00
2019-04-10T09:46:16.282Z,79.33
2019-04-10T09:48:46.430Z,78.59
2019-04-10T09:51:19.447Z,78.55
2019-04-10T09:53:51.015Z,78.86
2019-04-10T09:56:21.502Z,77.33
2019-04-10T09:58:51.981Z,77.85
2019-04-10T10:01:22.251Z,78.16
2019-04-10T10:03:52.829Z,79.05
2019-04-10T10:06:29.908Z,78.91
2019-04-10T10:08:58.457Z,78.83
2019-04-10T10:11:28.750Z,78.46
2019-04-10T10:13:59.191Z,78.33
2019-04-10T10:16:30.352Z,78.16
2019-04-10T10:19:01.606Z,77.68
2019-04-10T10:21:32.469Z,77.46
2019-04-10T10:24:03.138Z,78.30
2019-04-10T10:26:34.390Z,78.10
2019-04-10T10:29:05.171Z,78.67
2019-04-10T10:31:36.069Z,79.31
2019-04-10T10:34:06.514Z,79.27
2019-04-10T10:36:41.932Z,78.52
2019-04-10T10:39:19.380Z,79.11
2019-04-10T10:41:51.244Z,78.05
2019-04-10T10:44:22.031Z,78.75
2019-04-10T10:46:52.302Z,79.19
2019-04-10T10:49:22.572Z,78.99
2019-04-10T10:51:53.297Z,78.22
2019-04-10T10:54:23.555Z,77.99
2019-04-10T10:56:54.936Z,77.58
2019-04-10T10:59:25.426Z,77.02
2019-04-10T11:01:56.074Z,77.16
2019-04-10T11:04:27.421Z,77.22
2019-04-10T11:07:00.902Z,76.22
2019-04-10T11:09:30.185Z,75.09
2019-04-10T11:12:01.727Z,75.57
2019-04-10T11:14:33.036Z,75.20
2019-04-10T11:17:03.444Z,75.78
2019-04-10T11:19:35.535Z,76.02
2019-04-10T11:22:07.631Z,75.84
2019-04-10T11:24:40.747Z,76.11
2019-04-10T11:27:11.605Z,75.32
2019-04-10T11:29:42.648Z,74.19
2019-04-10T11:32:14.393Z,73.25
2019-04-10T11:34:46.567Z,72.82
2019-04-10T11:37:27.099Z,73.10
2019-04-10T11:39:50.797Z,73.51
2019-04-10T11:42:22.603Z,72.64
2019-04-10T11:45:01.873Z,71.31
2019-04-10T11:47:35.410Z,71.31
2019-04-10T11:50:13.407Z,70.14
2019-04-10T11:52:49.004Z,70.04
2019-04-10T11:55:19.895Z,70.56
2019-04-10T11:57:48.945Z,71.23
2019-04-10T12:00:33.266Z,70.85
2019-04-10T12:03:08.735Z,68.62
2019-04-10T12:13:17.996Z,68.56
2019-04-10T12:15:48.449Z,68.53
2019-04-10T12:18:20.130Z,68.39
2019-04-10T12:20:51.537Z,67.74
2019-04-10T12:23:23.134Z,67.04
2019-04-10T12:25:53.805Z,65.35
2019-04-10T12:28:24.206Z,66.66
2019-04-10T12:30:55.489Z,67.24
2019-04-10T12:33:26.260Z,66.72
2019-04-10T12:36:00.394Z,65.99
2019-04-10T12:38:31.909Z,66.83
2019-04-10T12:41:03.444Z,66.57
2019-04-10T12:43:34.753Z,66.95
2019-04-10T12:46:11.372Z,67.26
2019-04-10T12:48:47.215Z,67.49
2019-04-10T12:51:20.136Z,67.66
2019-04-10T12:53:56.143Z,67.33
2019-04-10T12:56:26.947Z,67.38
2019-04-10T12:58:57.493Z,68.20
2019-04-10T13:01:28.910Z,67.88
2019-04-10T13:04:03.748Z,67.20
2019-04-10T13:06:34.163Z,68.09
2019-04-10T13:09:11.507Z,68.42
2019-04-10T13:11:38.958Z,68.40
2019-04-10T13:14:10.468Z,68.97
2019-04-10T13:16:41.372Z,68.94
2019-04-10T13:19:13.166Z,69.06
2019-04-10T13:21:44.400Z,69.47
2019-04-10T13:24:14.810Z,69.70
2019-04-10T13:26:46.117Z,69.65
2019-04-10T13:29:16.315Z,69.58
2019-04-10T13:31:46.765Z,68.23
2019-04-10T13:34:18.232Z,68.34
2019-04-10T13:36:49.283Z,68.10
2019-04-10T13:39:20.409Z,67.48
2019-04-10T13:41:50.695Z,66.35
2019-04-10T13:44:22.357Z,66.00
2019-04-10T13:46:53.197Z,66.31
2019-04-10T13:49:24.058Z,67.07
2019-04-10T13:51:54.398Z,67.43
2019-04-10T13:54:24.801Z,67.09
2019-04-10T13:56:55.306Z,67.15
2019-04-10T13:59:27.559Z,67.37
2019-04-10T14:01:58.472Z,67.82
2019-04-10T14:04:29.878Z,66.73
2019-04-10T14:07:00.521Z,68.46
2019-04-10T14:09:38.758Z,68.70
2019-04-10T14:12:03.999Z,67.89
2019-04-10T14:14:35.089Z,66.34
2019-04-10T14:17:06.937Z,65.75
2019-04-10T14:19:37.667Z,66.13
2019-04-10T14:22:09.278Z,65.43
2019-04-10T14:24:44.740Z,65.25
2019-04-10T14:27:18.282Z,65.13
2019-04-10T14:29:49.103Z,65.55
2019-04-10T14:32:33.418Z,65.88
2019-04-10T14:35:03.768Z,64.45
2019-04-10T14:37:34.208Z,64.18
2019-04-10T14:40:05.680Z,64.59
2019-04-10T14:42:38.265Z,64.29
2019-04-10T14:45:09.316Z,64.39
2019-04-10T14:47:39.757Z,64.96
2019-04-10T14:50:10.491Z,66.06
2019-04-10T14:52:41.142Z,65.61
2019-04-10T14:55:12.459Z,65.37
2019-04-10T14:57:43.264Z,65.51
2019-04-10T15:00:22.419Z,65.84
2019-04-10T15:02:52.636Z,66.06
2019-04-10T15:05:24.374Z,65.78
2019-04-10T15:07:55.357Z,65.32
2019-04-10T15:10:25.833Z,64.84
2019-04-10T15:13:06.950Z,63.71
2019-04-10T15:15:28.498Z,64.89
2019-04-10T15:17:59.032Z,64.74
2019-04-10T15:20:29.591Z,64.33
2019-04-10T15:23:00.834Z,64.68
2019-04-10T15:25:31.608Z,63.48
2019-04-10T15:28:04.359Z,64.65
2019-04-10T15:30:34.746Z,64.41
2019-04-10T15:33:06.623Z,64.16
2019-04-10T15:35:38.358Z,64.04
2019-04-10T15:38:09.480Z,64.37
2019-04-10T15:40:39.959Z,65.01
2019-04-10T15:43:10.866Z,64.50
2019-04-10T15:45:41.514Z,64.73
2019-04-10T15:48:12.505Z,65.34
2019-04-10T15:50:43.459Z,65.53
2019-04-10T15:53:13.916Z,65.42
2019-04-10T15:55:45.310Z,64.87
2019-04-10T15:58:36.442Z,64.25
2019-04-10T16:01:09.775Z,64.69
2019-04-10T16:03:40.786Z,65.61
2019-04-10T16:06:11.190Z,64.55
2019-04-10T16:08:42.703Z,64.66
2019-04-10T16:11:33.876Z,65.39
2019-04-10T16:14:16.857Z,66.42
2019-04-10T16:17:08.855Z,66.22
2019-04-10T16:19:51.391Z,67.43
2019-04-10T16:22:35.194Z,67.65
2019-04-10T16:25:15.985Z,68.37
2019-04-10T16:27:46.456Z,69.06
2019-04-10T16:30:18.832Z,69.40
2019-04-10T16:32:50.103Z,69.70
2019-04-10T16:35:21.093Z,69.89
2019-04-10T16:37:51.833Z,70.95
2019-04-10T16:40:22.700Z,70.62
2019-04-10T16:42:53.391Z,70.54
2019-04-10T16:45:24.525Z,71.65
2019-04-10T16:47:54.763Z,71.90
2019-04-10T16:50:25.889Z,72.15
2019-04-10T16:52:56.232Z,72.78
2019-04-10T16:55:26.910Z,73.04
2019-04-10T16:57:57.512Z,73.82
2019-04-10T17:00:27.765Z,72.13
2019-04-10T17:02:58.018Z,72.14
2019-04-10T17:05:33.671Z,72.11
2019-04-10T17:08:03.950Z,71.63
2019-04-10T17:10:34.622Z,71.64
2019-04-10T17:13:07.301Z,70.68
2019-04-10T17:15:37.794Z,69.87
2019-04-10T17:18:08.718Z,69.31
2019-04-10T17:20:38.924Z,69.17
2019-04-10T17:23:10.021Z,69.55
2019-04-10T17:25:40.562Z,70.08
2019-04-10T17:28:12.202Z,70.85
2019-04-10T17:30:44.128Z,71.35
2019-04-10T17:33:15.031Z,71.75
2019-04-10T17:35:47.520Z,70.54
2019-04-10T17:38:20.425Z,71.23
2019-04-10T17:40:55.101Z,70.67
2019-04-10T17:43:23.630Z,70.81
2019-04-10T17:45:55.165Z,70.57
2019-04-10T17:48:28.048Z,71.82
2019-04-10T17:50:58.331Z,71.50
2019-04-10T17:53:29.396Z,73.31
2019-04-10T17:56:02.120Z,74.08
2019-04-10T17:58:34.427Z,74.17
2019-04-10T18:01:08.370Z,75.00
2019-04-10T18:03:47.277Z,75.02
2019-04-10T18:06:12.686Z,75.56
2019-04-10T18:08:43.216Z,76.23
2019-04-10T18:11:14.171Z,75.99
2019-04-10T18:13:44.980Z,76.06
2019-04-10T18:16:15.714Z,75.75
2019-04-10T18:18:47.300Z,76.87
2019-04-10T18:21:20.317Z,77.31
2019-04-10T18:23:51.488Z,77.11
2019-04-10T18:26:23.678Z,79.81
2019-04-10T18:28:54.378Z,80.29
2019-04-10T18:31:26.461Z,80.93
2019-04-10T18:33:56.728Z,81.60
2019-04-10T18:36:28.400Z,82.02
2019-04-10T18:38:59.697Z,81.96
2019-04-10T18:41:31.835Z,82.55
2019-04-10T18:44:02.649Z,82.85
2019-04-10T18:46:33.392Z,83.92
2019-04-10T18:49:03.811Z,84.03
2019-04-10T18:51:36.230Z,84.64
2019-04-10T18:54:08.092Z,85.35
2019-04-10T18:56:39.286Z,85.70
2019-04-10T18:59:16.422Z,86.19
2019-04-10T19:02:08.350Z,86.42
2019-04-10T19:04:53.667Z,86.41
2019-04-10T19:07:25.108Z,86.95
2019-04-10T19:09:56.643Z,87.04
2019-04-10T19:12:28.658Z,86.71
2019-04-10T19:14:59.317Z,86.58
2019-04-10T19:17:31.016Z,86.53
2019-04-10T19:20:02.161Z,86.55
2019-04-10T19:22:34.729Z,86.79
2019-04-10T19:25:06.155Z,86.97
2019-04-10T19:27:37.120Z,87.26
2019-04-10T19:30:14.959Z,87.39
2019-04-10T19:32:45.836Z,87.69
2019-04-10T19:35:16.982Z,87.85
2019-04-10T19:37:50.401Z,87.46
2019-04-10T19:40:21.219Z,87.25
2019-04-10T19:42:51.917Z,86.40
2019-04-10T19:45:22.366Z,86.68
2019-04-10T19:47:53.032Z,86.56
2019-04-10T19:50:24.119Z,86.36
2019-04-10T19:52:55.085Z,86.15
2019-04-10T19:55:25.381Z,85.50
2019-04-10T19:57:56.016Z,84.22
2019-04-10T20:00:30.955Z,83.12
2019-04-10T20:03:01.578Z,81.98
2019-04-10T20:05:32.200Z,81.92
2019-04-10T20:08:02.993Z,80.49
2019-04-10T20:10:33.791Z,79.92
2019-04-10T20:13:04.780Z,79.30
2019-04-10T20:15:36.300Z,79.17
2019-04-10T20:18:08.571Z,78.83
2019-04-10T20:20:39.897Z,78.35
2019-04-10T20:23:23.664Z,77.81
2019-04-10T20:25:55.392Z,77.63
2019-04-10T20:28:26.830Z,77.04
2019-04-10T20:30:58.087Z,77.04
2019-04-10T20:33:30.597Z,76.97
2019-04-10T20:36:01.222Z,75.63
2019-04-10T20:38:33.394Z,76.50
2019-04-10T20:41:04.626Z,75.46
2019-04-10T20:43:35.327Z,75.63
2019-04-10T20:46:06.599Z,75.23
2019-04-10T20:48:38.355Z,74.80
2019-04-10T20:51:09.285Z,73.86
2019-04-10T20:53:40.251Z,73.13
2019-04-10T20:56:10.800Z,72.45
2019-04-10T20:58:42.133Z,71.98
2019-04-10T21:01:14.457Z,71.44
2019-04-10T21:03:45.388Z,71.60
2019-04-10T21:06:17.505Z,72.34
2019-04-10T21:08:48.200Z,72.68
2019-04-10T21:11:18.722Z,72.75
2019-04-10T21:13:49.101Z,72.58
2019-04-10T21:16:19.900Z,72.18
2019-04-10T21:18:51.829Z,71.97
2019-04-10T21:21:24.330Z,71.97
2019-04-10T21:23:56.482Z,73.21
2019-04-10T21:26:30.496Z,73.84
2019-04-10T21:29:01.028Z,73.69
2019-04-10T21:31:53.257Z,73.23
2019-04-10T21:34:30.472Z,73.78
2019-04-10T21:37:01.772Z,73.64
2019-04-10T21:39:32.134Z,73.01
2019-04-10T21:42:13.129Z,72.36
2019-04-10T21:44:35.214Z,72.64
2019-04-10T21:47:05.551Z,72.30
2019-04-10T21:49:38.025Z,72.01
2019-04-10T21:52:09.728Z,72.40
2019-04-10T21:54:49.787Z,73.60
2019-04-10T21:57:12.454Z,74.84
2019-04-10T21:59:43.180Z,75.02
2019-04-10T22:02:13.490Z,75.69
2019-04-10T22:04:43.752Z,75.53
2019-04-10T22:07:41.995Z,75.81
2019-04-10T22:10:28.064Z,75.22
2019-04-10T22:12:59.501Z,74.93
2019-04-10T22:15:39.427Z,75.35
2019-04-10T22:18:11.167Z,74.47
2019-04-10T22:20:41.681Z,74.99
2019-04-10T22:23:12.254Z,74.83
2019-04-10T22:25:43.724Z,75.13
2019-04-10T22:28:14.953Z,75.47
2019-04-10T22:30:46.607Z,75.75
2019-04-10T22:33:18.116Z,75.74
2019-04-10T22:35:48.429Z,75.36
2019-04-10T22:38:19.410Z,75.75
2019-04-10T22:40:50.364Z,75.53
2019-04-10T22:43:20.829Z,75.27
2019-04-10T22:45:51.036Z,74.92
2019-04-10T22:48:21.203Z,74.62
2019-04-10T22:50:51.508Z,73.46
2019-04-10T22:53:21.725Z,73.60
2019-04-10T22:55:52.834Z,74.16
2019-04-10T22:58:23.052Z,73.67
2019-04-10T23:00:53.896Z,71.99
2019-04-10T23:03:24.478Z,68.53
2019-04-10T23:05:54.867Z,68.59
2019-04-10T23:08:25.417Z,67.89
2019-04-10T23:10:55.743Z,68.61
2019-04-10T23:13:30.095Z,67.70
2019-04-10T23:16:00.423Z,66.86
2019-04-10T23:18:31.743Z,67.34
2019-04-10T23:21:02.345Z,67.56
2019-04-10T23:23:32.851Z,67.32
2019-04-10T23:26:03.111Z,68.57
2019-04-10T23:28:33.758Z,68.07
2019-04-10T23:31:05.689Z,67.08
2019-04-10T23:33:36.583Z,65.07
2019-04-10T23:36:07.684Z,64.52
2019-04-10T23:38:37.909Z,64.66
2019-04-10T23:41:09.386Z,64.64
2019-04-10T23:43:40.058Z,63.49
2019-04-10T23:46:12.763Z,63.82
2019-04-10T23:48:44.706Z,63.71
2019-04-10T23:51:14.838Z,64.05
2019-04-10T23:53:46.698Z,65.57
2019-04-10T23:56:17.755Z,66.04
2019-04-10T23:58:49.204Z,67.23
